HEBLHEGN

Guest
Details From HEBL - ABU SIMBEL
To HEGN - HURGHADA INTL
Flight Number -
Tags generated
Created
Modified
Stats Distance 314 nm / 582 km
Max Altitude 35,000 ft / 10,668 m
Waypoints 5
Social Downloads 1
Likes 0
Share VATSIM

Download

Looking for another format? Having issues loading an existing format? Contact us
Advertisement - Login to hide

Notes

Basic altitude profile: - Ascent Rate: 2500ft/min - Ascent Speed: 250kts - Cruise Altitude: 35000ft - Cruise Speed: 420kts - Descent Rate: 1500ft/min - Descent Speed: 250kts Options: - Use NATs: yes - Use PACOTS: yes - Use low airways: yes - Use high airways: yes

Route

HEBL LOPID A727 LXR HEGN

ID Type Via Altitude Latitude Longitude Leg Dist Tot Dist Heading (true) Name
O HEBL APT - 0 ft / 0 m 22.37595˚ 31.61172˚ - 0 nm - ABU SIMBEL
LOPID FIX - 21,100 ft / 6,431 m 23.31667˚ 31.92500˚ 59 nm 59 nm 17° / 17° -
BOVAR FIX A727 (AWY-HI) 35,000 ft / 10,668 m 24.69444˚ 32.40528˚ 86 nm 145 nm 18° / 18° -
LXR VOR A727 (AWY-HI) 21,800 ft / 6,645 m 25.74939˚ 32.76858˚ 66 nm 212 nm 17° / 17° LUXOR VOR-DME
O HEGN APT - 0 ft / 0 m 27.17831˚ 33.79940˚ 102 nm 314 nm 33° / 33° HURGHADA INTL

Altitude Profile

Advertisement - Login to hide

Weather


0- 5 10 15 20 25 30 35+ Temperature / ° C

Clouds and Precipitation
Forecast for 2017-12-12 00:00 UTC. Updated 2 hours ago

Ground ~20,000 ft ~40,000 ft Winds

HEBL

Details ICAO HEBL (ABS)
Name ABU SIMBEL
Region Egypt
Timezone Africa/Cairo (UTC+2.0)
Stats Elevation 616 ft / 188 m (AMSL)
Location 22.375951° 31.611721°
Runways 1
Magnetic Variation 3.833° E

METAR

HEBL 112300Z 02006KT CAVOK 20/08 Q1015 NOSIG

Decode

TAF

Not found

Departure Runways

ID Width Length Bearing (true) Bearing (mag) Surface Threshold Offset Overrun Length
15 148 ft / 45 m 9,873 ft / 3,009 m 150.09° 146.26° Asphalt 0 ft / 0 m 197 ft / 60 m
33 148 ft / 45 m 9,873 ft / 3,009 m 330.10° 326.27° Asphalt 0 ft / 0 m 197 ft / 60 m

HEGN

Details ICAO HEGN (HRG)
Name HURGHADA INTL
Region Egypt
Timezone Africa/Cairo (UTC+2.0)
Stats Elevation 52 ft / 16 m (AMSL)
Location 27.178308° 33.799397°
Runways 1
Magnetic Variation 4.211° E

METAR

HEGN 112300Z 30004KT CAVOK 15/02 Q1018 NOSIG

Decode

TAF

Not found

Destination Runways

ID Width Length Bearing (true) Bearing (mag) Surface Threshold Offset Overrun Length
16 148 ft / 45 m 13,169 ft / 4,014 m 165.29° 161.08° Asphalt 985 ft / 300 m 0 ft / 0 m
34 148 ft / 45 m 13,169 ft / 4,014 m 345.29° 341.08° Asphalt 0 ft / 0 m 200 ft / 61 m

Approach Navaids

Runway Type Ident Frequency Range Bearing (true) Bearing (mag) Slope Elevation
34 Localiser HIL 110.30 MHz 18 nm / 33 km 347.43° 343.22° - 56 ft / 17 m (AMSL)
34 Glidescope HIL 110.30 MHz 10 nm / 19 km 345.29° 341.08° 3.00° 64 ft / 20 m (AMSL)
34 DME HIL 110.30 MHz 18 nm / 33 km - - - 30 ft / 9 m (AMSL)